Time;durP1;ratioP1;P1;durP2;ratioP2;P2;SDS_P1;SDS_P2;PMS_P1;PMS_P2;Temp;Humidity;BMP_temperature;BMP_pressure;BME280_temperature;BME280_humidity;BME280_pressure;Samples;Min_cycle;Max_cycle;Signal;HPM_P1;HPM_P2
2021/12/16 00:02:08;;;;;;;16.00;13.57;;;;;;;3.60;100.00;99702.84;4986305;28;20271;-74
2021/12/16 00:05:14;;;;;;;12.03;10.80;;;;;;;3.68;100.00;99708.53;4995394;28;20255;-75
2021/12/16 00:07:54;;;;;;;11.67;10.57;;;;;;;3.60;100.00;99705.44;4963607;28;20821;-75
2021/12/16 00:10:28;;;;;;;10.63;9.53;;;;;;;3.61;100.00;99705.34;4981432;28;20236;-75
2021/12/16 00:32:31;;;;;;;12.23;11.03;;;;;;;3.54;100.00;99693.50;4982561;28;20209;-74
2021/12/16 00:34:59;;;;;;;11.60;10.33;;;;;;;3.52;100.00;99697.97;4996862;28;20220;-75
2021/12/16 00:37:28;;;;;;;10.63;9.63;;;;;;;3.55;100.00;99697.81;4990470;28;20427;-74
2021/12/16 00:39:56;;;;;;;13.00;11.27;;;;;;;3.65;100.00;99703.44;4958806;28;20240;-74
2021/12/16 00:42:35;;;;;;;12.30;11.10;;;;;;;3.63;100.00;99700.06;4979823;28;20220;-72
2021/12/16 00:45:23;;;;;;;11.73;10.57;;;;;;;3.65;100.00;99692.97;4994027;28;20700;-75
2021/12/16 00:47:57;;;;;;;11.27;10.23;;;;;;;3.63;100.00;99700.06;4997110;28;20209;-74
2021/12/16 00:55:58;;;;;;;12.50;11.20;;;;;;;3.67;100.00;99713.84;4986793;28;20205;-75
2021/12/16 00:58:32;;;;;;;13.00;11.60;;;;;;;3.55;100.00;99717.91;4978829;28;20723;-73
2021/12/16 01:01:09;;;;;;;11.97;10.70;;;;;;;3.62;100.00;99720.16;4993273;28;20205;-74
2021/12/16 01:03:46;;;;;;;13.03;11.73;;;;;;;3.62;100.00;99720.16;4993145;28;20244;-74
2021/12/16 01:06:34;;;;;;;12.30;11.10;;;;;;;3.57;100.00;99714.31;4993191;28;20492;-73
2021/12/16 01:09:17;;;;;;;12.23;11.00;;;;;;;3.58;100.00;99715.13;4961462;28;20225;-76
2021/12/16 01:34:09;;;;;;;23.30;17.47;;;;;;;3.41;100.00;99737.81;4992723;28;20258;-75
2021/12/16 01:37:06;;;;;;;19.13;14.50;;;;;;;3.39;100.00;99734.41;4992458;28;20486;-74
2021/12/16 01:40:02;;;;;;;12.80;11.53;;;;;;;3.38;100.00;99735.34;4959427;28;20229;-75
2021/12/16 01:45:39;;;;;;;13.53;11.50;;;;;;;3.35;100.00;99732.00;4982303;28;20701;-76
2021/12/16 01:48:52;;;;;;;12.60;10.50;;;;;;;3.31;100.00;99734.78;4993176;28;20254;-75
2021/12/16 01:51:19;;;;;;;12.63;11.37;;;;;;;3.29;100.00;99735.81;4992377;28;20228;-75
2021/12/16 01:54:26;;;;;;;17.17;12.60;;;;;;;3.29;100.00;99733.19;4994610;28;20223;-75
2021/12/16 01:56:57;;;;;;;14.67;13.10;;;;;;;3.36;100.00;99736.31;4960416;28;20274;-75
2021/12/16 01:59:33;;;;;;;13.87;12.50;;;;;;;3.33;100.00;99739.97;4976302;28;20952;-73
2021/12/16 02:02:12;;;;;;;13.90;12.40;;;;;;;3.29;100.00;99736.63;4993360;28;20737;-74
2021/12/16 02:04:54;;;;;;;12.40;11.10;;;;;;;3.27;100.00;99735.03;4992205;28;20438;-74
2021/12/16 02:07:44;;;;;;;13.10;11.80;;;;;;;3.30;100.00;99730.47;4992488;28;20209;-76
2021/12/16 02:10:13;;;;;;;12.90;11.60;;;;;;;3.31;100.00;99733.94;4975037;28;20754;-76
2021/12/16 02:12:54;;;;;;;13.00;11.63;;;;;;;3.29;100.00;99725.31;4954481;28;20228;-73
2021/12/16 02:29:22;;;;;;;13.50;12.10;;;;;;;3.38;100.00;99718.75;4962276;28;20212;-73
2021/12/16 02:31:57;;;;;;;11.53;10.37;;;;;;;3.46;100.00;99709.59;4993978;28;20248;-73
2021/12/16 02:34:32;;;;;;;14.20;12.77;;;;;;;3.38;100.00;99706.50;4991607;28;20755;-72
2021/12/16 02:37:01;;;;;;;14.03;12.53;;;;;;;3.40;100.00;99714.28;4991883;28;20569;-73
2021/12/16 02:39:31;;;;;;;13.43;12.03;;;;;;;3.36;100.00;99702.25;4989897;28;20202;-71
2021/12/16 02:42:04;;;;;;;13.40;12.10;;;;;;;3.30;100.00;99708.66;4965849;28;20216;-73
2021/12/16 02:44:39;;;;;;;13.40;12.03;;;;;;;3.31;100.00;99699.88;4983973;28;20607;-71
2021/12/16 02:49:57;;;;;;;13.43;12.07;;;;;;;3.27;100.00;99711.44;4991084;28;20200;-75
2021/12/16 02:52:28;;;;;;;13.43;12.10;;;;;;;3.26;100.00;99707.13;4988517;28;20812;-73
2021/12/16 02:54:56;;;;;;;13.97;12.57;;;;;;;3.26;100.00;99701.88;4994035;28;20204;-73
2021/12/16 02:57:25;;;;;;;14.37;12.47;;;;;;;3.19;100.00;99691.69;4958317;28;20556;-75
2021/12/16 02:59:54;;;;;;;13.30;11.90;;;;;;;3.24;100.00;99698.50;4988388;28;20292;-75
2021/12/16 03:02:25;;;;;;;13.17;11.77;;;;;;;3.22;100.00;99698.56;4981645;28;20216;-76
2021/12/16 03:04:54;;;;;;;12.77;11.53;;;;;;;3.23;100.00;99708.09;4997517;28;20208;-75
2021/12/16 03:07:23;;;;;;;14.00;12.17;;;;;;;3.21;100.00;99704.72;4978345;28;20660;-73
2021/12/16 03:10:25;;;;;;;15.40;12.87;;;;;;;3.21;100.00;99707.34;4993141;28;20570;-75
2021/12/16 03:13:00;;;;;;;13.07;11.73;;;;;;;3.17;100.00;99704.00;4993418;28;20220;-75
2021/12/16 03:15:52;;;;;;;14.70;13.10;;;;;;;3.18;100.00;99715.34;4969797;28;20213;-76
2021/12/16 03:18:29;;;;;;;13.93;12.47;;;;;;;3.19;100.00;99712.63;4981853;28;20243;-76
2021/12/16 03:21:02;;;;;;;13.67;12.07;;;;;;;3.21;100.00;99719.56;4996757;28;20201;-73
2021/12/16 03:23:45;;;;;;;16.47;13.00;;;;;;;3.24;100.00;99722.06;4989967;28;20480;-74
2021/12/16 03:26:51;;;;;;;14.87;12.47;;;;;;;3.17;100.00;99718.91;4991391;28;20488;-73
2021/12/16 03:29:42;;;;;;;13.97;12.57;;;;;;;3.25;100.00;99716.75;4958045;28;20976;-75
2021/12/16 03:35:30;;;;;;;15.93;12.83;;;;;;;3.21;100.00;99728.31;4905732;29;20234;-74
2021/12/16 03:38:00;;;;;;;13.33;11.93;;;;;;;3.21;100.00;99730.06;4986532;28;20217;-74
2021/12/16 03:40:29;;;;;;;15.13;12.70;;;;;;;3.19;100.00;99728.34;4978204;28;20258;-75
2021/12/16 03:43:02;;;;;;;13.50;12.10;;;;;;;3.15;100.00;99726.81;4994720;28;20217;-75
2021/12/16 03:48:24;;;;;;;15.13;13.53;;;;;;;3.16;100.00;99725.88;4987666;28;20220;-77
2021/12/16 03:50:52;;;;;;;13.27;11.90;;;;;;;3.13;100.00;99722.59;4988550;28;20502;-74
2021/12/16 03:53:20;;;;;;;14.93;12.73;;;;;;;3.16;100.00;99725.88;4993557;28;20320;-75
2021/12/16 03:55:50;;;;;;;13.20;11.80;;;;;;;3.15;100.00;99724.19;4993313;28;20201;-76
2021/12/16 03:58:19;;;;;;;13.60;11.67;;;;;;;3.14;100.00;99722.50;4996246;28;20217;-74
2021/12/16 04:00:50;;;;;;;14.40;12.47;;;;;;;3.17;100.00;99732.81;4960843;28;21266;-76
2021/12/16 04:03:19;;;;;;;15.73;12.50;;;;;;;3.18;100.00;99731.06;4996818;28;20259;-77
2021/12/16 04:05:48;;;;;;;15.00;12.70;;;;;;;3.22;100.00;99742.22;4994343;28;20420;-75
2021/12/16 04:08:16;;;;;;;14.07;12.53;;;;;;;3.17;100.00;99739.84;4995622;28;20205;-75
2021/12/16 04:10:49;;;;;;;14.50;13.00;;;;;;;3.21;100.00;99740.53;4993286;28;20331;-77
2021/12/16 04:13:20;;;;;;;15.13;13.50;;;;;;;3.16;100.00;99741.59;4996447;28;20244;-75
2021/12/16 04:15:48;;;;;;;14.47;12.90;;;;;;;3.14;100.00;99740.84;4962943;28;20438;-76
2021/12/16 04:18:16;;;;;;;13.60;12.20;;;;;;;3.18;100.00;99741.56;4996748;28;20706;-76
2021/12/16 04:20:46;;;;;;;13.93;12.47;;;;;;;3.15;100.00;99742.53;4994386;28;20201;-77
2021/12/16 04:23:18;;;;;;;14.83;13.20;;;;;;;3.14;100.00;99748.69;4995419;28;20236;-77
2021/12/16 04:25:48;;;;;;;12.90;11.53;;;;;;;3.15;100.00;99739.91;4992330;28;20208;-76
2021/12/16 04:28:21;;;;;;;15.40;12.63;;;;;;;3.14;100.00;99735.59;4995205;28;20236;-74
2021/12/16 04:30:49;;;;;;;11.97;10.73;;;;;;;3.14;100.00;99742.63;4961708;28;21134;-75
2021/12/16 04:33:18;;;;;;;15.70;12.83;;;;;;;3.17;100.00;99745.94;4995588;28;20236;-78
2021/12/16 04:35:46;;;;;;;14.03;11.67;;;;;;;3.15;100.00;99750.41;4994291;28;21016;-77
2021/12/16 04:38:15;;;;;;;14.50;12.90;;;;;;;3.15;100.00;99752.19;4995445;28;20259;-77
2021/12/16 04:40:46;;;;;;;16.83;12.90;;;;;;;3.18;100.00;99762.50;4994452;28;20201;-75
2021/12/16 04:43:19;;;;;;;16.53;13.60;;;;;;;3.15;100.00;99753.00;5001116;28;20225;-76
2021/12/16 04:45:50;;;;;;;15.20;12.77;;;;;;;3.19;100.00;99751.09;4980578;28;20210;-76
2021/12/16 04:48:18;;;;;;;12.70;11.40;;;;;;;3.15;100.00;99750.41;4963393;28;20217;-76
2021/12/16 04:50:46;;;;;;;14.07;12.27;;;;;;;3.16;100.00;99754.72;4980386;28;20431;-76
2021/12/16 04:53:14;;;;;;;15.23;13.17;;;;;;;3.16;100.00;99754.72;4996670;28;20240;-74
2021/12/16 04:55:43;;;;;;;15.30;13.50;;;;;;;3.14;100.00;99759.19;4992109;28;20602;-75
2021/12/16 04:58:11;;;;;;;14.60;12.30;;;;;;;3.18;100.00;99763.34;4988297;28;20210;-74
2021/12/16 05:00:39;;;;;;;12.80;11.50;;;;;;;3.24;100.00;99761.38;4982805;28;20439;-75
2021/12/16 05:03:08;;;;;;;14.40;11.93;;;;;;;3.19;100.00;99762.41;4959656;28;20247;-76
2021/12/16 05:05:36;;;;;;;14.47;12.60;;;;;;;3.23;100.00;99764.91;4985869;28;20674;-75
2021/12/16 05:08:05;;;;;;;16.23;12.63;;;;;;;3.26;100.00;99770.84;4994096;28;20566;-77
2021/12/16 05:10:33;;;;;;;15.80;13.40;;;;;;;3.24;100.00;99770.06;4992702;28;20212;-77
2021/12/16 05:13:03;;;;;;;13.60;12.20;;;;;;;3.25;100.00;99765.69;4995330;28;20236;-78
2021/12/16 05:15:35;;;;;;;13.37;12.10;;;;;;;3.23;100.00;99768.38;4994381;28;20201;-77
2021/12/16 05:18:05;;;;;;;13.33;11.93;;;;;;;3.23;100.00;99765.75;4993043;28;20217;-76
2021/12/16 05:20:41;;;;;;;14.00;11.30;;;;;;;3.21;100.00;99764.97;4963995;28;20228;-73
2021/12/16 05:26:15;;;;;;;15.27;12.57;;;;;;;3.37;100.00;99767.72;4990925;28;20589;-75
2021/12/16 05:28:46;;;;;;;13.60;12.20;;;;;;;3.35;100.00;99774.81;4993178;28;20241;-78
2021/12/16 05:31:16;;;;;;;17.83;14.03;;;;;;;3.30;100.00;99782.03;4994611;28;20209;-75
2021/12/16 05:33:44;;;;;;;13.67;10.90;;;;;;;3.29;100.00;99789.03;4960904;28;20736;-74
2021/12/16 05:36:13;;;;;;;13.30;12.00;;;;;;;3.30;100.00;99790.75;4991253;28;20213;-75
2021/12/16 05:38:42;;;;;;;14.00;11.77;;;;;;;3.29;100.00;99793.44;4992111;28;20395;-74
2021/12/16 05:41:13;;;;;;;14.30;12.33;;;;;;;3.33;100.00;99789.75;4976529;28;20667;-74
2021/12/16 05:43:41;;;;;;;12.93;11.63;;;;;;;3.29;100.00;99789.03;4990780;28;20497;-75
2021/12/16 05:46:10;;;;;;;17.43;14.07;;;;;;;3.33;100.00;99793.22;4997291;28;20245;-72
2021/12/16 05:48:41;;;;;;;16.80;14.40;;;;;;;3.28;100.00;99792.59;4972177;28;20606;-75
2021/12/16 05:51:19;;;;;;;15.83;12.33;;;;;;;3.26;100.00;99796.22;4966792;28;20213;-77
2021/12/16 05:53:48;;;;;;;17.60;13.83;;;;;;;3.16;100.00;99794.00;4985508;28;20359;-73
2021/12/16 05:56:16;;;;;;;15.40;12.60;;;;;;;3.28;100.00;99789.97;4981600;28;20477;-76
2021/12/16 05:58:45;;;;;;;16.27;13.57;;;;;;;3.29;100.00;99796.06;4996877;28;20621;-78
2021/12/16 06:01:15;;;;;;;16.47;14.10;;;;;;;3.29;100.00;99793.44;4993662;28;20293;-74
2021/12/16 06:03:44;;;;;;;15.60;13.07;;;;;;;3.24;100.00;99803.31;4987036;28;20233;-75
2021/12/16 06:06:12;;;;;;;15.77;12.87;;;;;;;3.26;100.00;99798.84;4963486;28;20224;-76
2021/12/16 06:08:42;;;;;;;16.07;13.80;;;;;;;3.22;100.00;99799.88;4984489;28;20696;-78
2021/12/16 06:11:19;;;;;;;17.10;13.77;;;;;;;3.19;100.00;99803.50;4995425;28;20431;-76
2021/12/16 06:13:59;;;;;;;14.73;13.20;;;;;;;3.19;100.00;99808.75;4995956;28;20263;-76
2021/12/16 06:27:33;;;;;;;14.73;12.23;;;;;;;3.41;100.00;99807.72;4999955;28;20208;-74
2021/12/16 06:30:02;;;;;;;15.90;12.87;;;;;;;3.26;100.00;99819.81;4996607;28;20208;-75
2021/12/16 06:32:30;;;;;;;16.57;13.73;;;;;;;3.50;100.00;99822.16;4999256;28;20224;-79
2021/12/16 06:34:58;;;;;;;13.97;11.93;;;;;;;3.40;100.00;99825.22;4980752;28;20907;-76
2021/12/16 06:37:26;;;;;;;16.17;13.77;;;;;;;3.56;100.00;99830.59;4962523;28;20221;-75
2021/12/16 06:39:55;;;;;;;15.47;13.03;;;;;;;3.44;100.00;99823.31;4985303;28;20682;-75
2021/12/16 06:42:25;;;;;;;14.27;12.77;;;;;;;3.44;100.00;99833.81;5000211;28;20495;-77
2021/12/16 06:44:57;;;;;;;15.90;12.07;;;;;;;3.47;100.00;99831.03;4986980;28;20208;-75
2021/12/16 06:47:32;;;;;;;15.30;12.63;;;;;;;3.39;100.00;99825.28;4999691;28;20216;-76
2021/12/16 06:50:00;;;;;;;13.77;11.63;;;;;;;3.59;100.00;99827.81;4983961;28;20211;-76
2021/12/16 06:52:34;;;;;;;15.17;12.60;;;;;;;3.55;100.00;99835.88;4965844;28;20240;-75
2021/12/16 06:55:11;;;;;;;15.40;12.73;;;;;;;3.45;100.00;99838.97;4979982;28;20432;-75
2021/12/16 06:57:50;;;;;;;13.57;11.60;;;;;;;3.44;100.00;99841.66;4998249;28;20530;-75
2021/12/16 07:00:29;;;;;;;14.20;12.13;;;;;;;3.35;100.00;99835.09;4982430;28;20205;-76
2021/12/16 07:02:59;;;;;;;15.57;12.87;;;;;;;3.35;100.00;99836.84;4993365;28;20287;-76
2021/12/16 07:05:31;;;;;;;15.40;13.60;;;;;;;3.28;100.00;99838.91;4983724;28;20215;-77
2021/12/16 07:08:00;;;;;;;14.10;12.33;;;;;;;3.33;100.00;99850.03;4961598;28;20213;-74
2021/12/16 07:10:30;;;;;;;12.40;10.83;;;;;;;3.32;100.00;99850.97;4996817;28;20560;-75
2021/12/16 07:13:06;;;;;;;15.03;12.73;;;;;;;3.37;100.00;99862.06;4982704;28;20692;-75
2021/12/16 07:15:35;;;;;;;13.27;11.47;;;;;;;3.36;100.00;99855.13;4984078;28;20208;-76
2021/12/16 07:18:04;;;;;;;15.07;11.97;;;;;;;3.35;100.00;99871.78;4996042;28;20213;-80
2021/12/16 07:20:34;;;;;;;12.23;11.00;;;;;;;3.40;100.00;99858.44;4987701;28;20396;-78
2021/12/16 07:23:04;;;;;;;14.07;11.70;;;;;;;3.40;100.00;99861.06;4963271;28;20248;-77
2021/12/16 07:25:35;;;;;;;13.30;11.90;;;;;;;3.40;100.00;99861.91;4996703;28;20204;-76
2021/12/16 07:28:07;;;;;;;15.60;12.10;;;;;;;3.43;100.00;99853.91;4989345;28;20209;-75
2021/12/16 07:30:37;;;;;;;14.37;11.60;;;;;;;3.40;100.00;99847.94;5002630;28;20248;-76
2021/12/16 07:33:06;;;;;;;14.63;12.70;;;;;;;3.37;100.00;99848.97;4988518;28;20467;-77
2021/12/16 07:35:34;;;;;;;15.00;11.60;;;;;;;3.40;100.00;99846.19;4995675;28;20248;-75
2021/12/16 07:38:03;;;;;;;15.33;11.27;;;;;;;3.35;100.00;99848.19;4988581;28;20625;-77
2021/12/16 07:40:31;;;;;;;14.93;12.43;;;;;;;3.40;100.00;99855.81;4967561;28;20673;-77
2021/12/16 07:43:22;;;;;;;15.40;12.10;;;;;;;3.41;100.00;99853.13;4984069;28;20242;-74
2021/12/16 07:45:53;;;;;;;14.03;12.20;;;;;;;3.45;100.00;99854.69;5001685;28;20209;-75
2021/12/16 07:48:23;;;;;;;13.13;11.37;;;;;;;3.45;100.00;99854.69;5004290;28;20212;-76
2021/12/16 07:50:55;;;;;;;15.90;12.03;;;;;;;3.38;100.00;99863.75;4982193;28;20216;-75
2021/12/16 07:53:23;;;;;;;14.77;11.60;;;;;;;3.39;100.00;99865.47;4995599;28;20226;-78
2021/12/16 07:55:51;;;;;;;15.03;12.23;;;;;;;3.41;100.00;99868.84;4969446;28;20294;-78
2021/12/16 07:58:23;;;;;;;14.73;11.50;;;;;;;3.44;100.00;99868.72;4991835;28;20370;-79
2021/12/16 08:00:53;;;;;;;15.13;12.43;;;;;;;3.46;100.00;99868.66;5000521;28;20619;-76
2021/12/16 08:03:21;;;;;;;15.60;12.37;;;;;;;3.44;100.00;99870.50;5005654;28;20235;-78
2021/12/16 08:05:54;;;;;;;13.90;12.43;;;;;;;3.45;100.00;99872.19;5003922;28;20681;-76
2021/12/16 08:08:23;;;;;;;14.97;11.40;;;;;;;3.50;100.00;99879.81;4990535;28;20729;-76
2021/12/16 08:10:52;;;;;;;13.23;11.93;;;;;;;3.49;100.00;99884.25;4971607;28;20377;-76
2021/12/16 08:13:22;;;;;;;13.37;11.80;;;;;;;3.52;100.00;99897.19;4992497;28;20244;-77
2021/12/16 08:15:50;;;;;;;14.37;12.03;;;;;;;3.52;100.00;99901.56;5002429;28;20384;-80
2021/12/16 08:18:18;;;;;;;14.10;12.43;;;;;;;3.52;100.00;99906.81;5002544;28;20224;-77
2021/12/16 08:20:46;;;;;;;15.03;12.40;;;;;;;3.54;100.00;99918.94;4987739;28;20486;-76
2021/12/16 08:23:14;;;;;;;14.60;12.10;;;;;;;3.58;100.00;99917.00;4991533;28;20237;-77
2021/12/16 08:25:42;;;;;;;13.67;11.60;;;;;;;3.57;100.00;99925.81;4975286;28;20436;-79
2021/12/16 08:28:11;;;;;;;14.60;11.57;;;;;;;3.57;100.00;99923.19;4993306;28;20366;-78
2021/12/16 08:30:42;;;;;;;15.17;12.07;;;;;;;3.55;100.00;99927.66;5004242;28;20209;-78
2021/12/16 08:33:12;;;;;;;14.93;11.80;;;;;;;3.57;100.00;99920.56;4999002;28;20476;-76
2021/12/16 08:35:42;;;;;;;13.33;11.13;;;;;;;3.59;100.00;99934.44;5001379;28;20240;-76
2021/12/16 08:38:12;;;;;;;14.77;11.97;;;;;;;3.75;100.00;99930.19;4990178;28;21378;-76
2021/12/16 08:40:41;;;;;;;13.70;11.60;;;;;;;3.70;100.00;99933.94;5001262;28;20212;-79
2021/12/16 08:43:12;;;;;;;14.57;12.23;;;;;;;3.83;100.00;99931.59;4954481;28;20466;-77
2021/12/16 08:45:43;;;;;;;20.97;17.10;;;;;;;3.74;100.00;99933.75;4994405;28;20616;-75
2021/12/16 08:48:12;;;;;;;18.70;13.63;;;;;;;3.70;100.00;99944.44;4993642;28;20243;-75
2021/12/16 08:50:43;;;;;;;17.33;13.57;;;;;;;3.73;100.00;99942.53;4999911;28;20650;-75
2021/12/16 08:53:12;;;;;;;15.30;12.90;;;;;;;3.73;100.00;99953.03;5000174;28;20403;-78
2021/12/16 08:55:41;;;;;;;17.30;14.97;;;;;;;3.75;100.00;99945.06;4993114;28;20213;-76
2021/12/16 08:58:09;;;;;;;15.23;12.60;;;;;;;3.82;100.00;99945.63;4965088;28;20216;-75
2021/12/16 09:00:42;;;;;;;15.37;12.43;;;;;;;3.86;100.00;99947.19;4992981;28;20213;-77
2021/12/16 09:03:10;;;;;;;14.93;13.37;;;;;;;3.94;100.00;99952.91;5005504;28;20236;-77
2021/12/16 09:05:39;;;;;;;13.43;11.73;;;;;;;4.00;100.00;99950.03;5001139;28;20336;-78
2021/12/16 09:08:07;;;;;;;17.37;13.97;;;;;;;3.95;100.00;99952.00;4998015;28;20208;-78
2021/12/16 09:10:37;;;;;;;14.30;12.80;;;;;;;4.01;100.00;99958.72;4986688;28;20209;-77
2021/12/16 09:13:09;;;;;;;14.50;12.00;;;;;;;3.99;100.00;99958.81;4964407;28;20957;-76
2021/12/16 09:15:41;;;;;;;15.23;12.20;;;;;;;4.01;100.00;99953.47;4988334;28;20272;-76
2021/12/16 09:18:10;;;;;;;14.87;13.10;;;;;;;4.09;100.00;99950.50;5001143;28;20213;-77
2021/12/16 09:20:39;;;;;;;15.20;12.10;;;;;;;4.12;100.00;99958.22;5000778;28;20209;-77
2021/12/16 09:23:09;;;;;;;14.57;12.23;;;;;;;4.18;100.00;99963.16;4993076;28;20418;-79
2021/12/16 09:25:39;;;;;;;14.63;12.30;;;;;;;4.20;100.00;99966.56;4989277;28;20213;-77
2021/12/16 09:28:08;;;;;;;16.07;13.30;;;;;;;4.28;100.00;99969.66;4966724;28;20232;-74
2021/12/16 09:30:37;;;;;;;15.37;12.03;;;;;;;4.27;100.00;99969.75;4998002;28;20213;-77
2021/12/16 09:33:12;;;;;;;14.53;12.00;;;;;;;4.35;100.00;99976.28;5000878;28;20225;-75
2021/12/16 09:35:41;;;;;;;16.47;12.93;;;;;;;4.35;100.00;99976.28;5006357;28;20233;-78
2021/12/16 09:38:10;;;;;;;16.10;12.97;;;;;;;4.35;100.00;99980.72;5003597;28;20395;-76
2021/12/16 09:40:47;;;;;;;23.50;13.00;;;;;;;4.34;100.00;99979.84;4998124;28;20212;-76
2021/12/16 09:43:15;;;;;;;15.27;12.33;;;;;;;4.43;100.00;99986.44;4961747;28;20250;-75
2021/12/16 09:45:50;;;;;;;16.53;14.17;;;;;;;4.42;100.00;99994.41;5004407;28;20205;-75
2021/12/16 09:48:20;;;;;;;18.17;13.97;;;;;;;4.73;100.00;99988.47;4992243;28;20213;-73
2021/12/16 09:50:48;;;;;;;17.70;15.07;;;;;;;4.66;100.00;99975.69;5004334;28;20234;-74
2021/12/16 09:53:16;;;;;;;24.13;16.73;;;;;;;4.64;100.00;99974.00;5004450;28;20232;-76
2021/12/16 09:55:46;;;;;;;17.60;13.60;;;;;;;4.55;100.00;99974.47;4996383;28;20221;-74
2021/12/16 09:58:14;;;;;;;14.60;12.43;;;;;;;4.59;100.00;99985.69;4973816;28;20826;-76
2021/12/16 10:00:42;;;;;;;18.53;13.73;;;;;;;4.62;100.00;99980.28;5003016;28;20213;-77
2021/12/16 10:03:11;;;;;;;17.50;14.20;;;;;;;4.64;100.00;99981.03;4992400;28;20399;-77
2021/12/16 10:05:41;;;;;;;18.07;14.03;;;;;;;4.60;100.00;99982.97;5004319;28;20291;-78
2021/12/16 10:08:10;;;;;;;16.97;14.77;;;;;;;4.63;100.00;99984.59;5000893;28;20212;-76
2021/12/16 10:10:39;;;;;;;15.17;13.07;;;;;;;4.67;100.00;99991.41;5004719;28;20205;-74
2021/12/16 10:13:07;;;;;;;19.47;13.27;;;;;;;4.75;100.00;99983.13;4951525;28;20724;-76
2021/12/16 10:18:23;;;;;;;16.27;13.37;;;;;;;4.75;100.00;99973.47;4962136;28;20212;-76
2021/12/16 10:20:55;;;;;;;17.40;14.27;;;;;;;4.76;100.00;99974.34;5006462;28;20216;-75
2021/12/16 10:23:27;;;;;;;16.23;13.07;;;;;;;4.81;100.00;99966.19;5006795;28;20225;-74
2021/12/16 10:25:58;;;;;;;16.87;13.03;;;;;;;4.80;100.00;99960.09;5006053;28;20213;-77
2021/12/16 10:28:29;;;;;;;25.93;19.90;;;;;;;5.06;100.00;99958.75;4996392;28;20233;-77
2021/12/16 10:31:02;;;;;;;19.10;14.27;;;;;;;4.97;100.00;99955.75;4969902;28;20226;-74
2021/12/16 10:33:33;;;;;;;18.00;14.13;;;;;;;4.91;100.00;99965.66;4995281;28;20663;-75
2021/12/16 10:36:10;;;;;;;16.60;14.00;;;;;;;4.95;100.00;99962.84;4999868;28;20229;-75
2021/12/16 10:38:41;;;;;;;16.27;14.23;;;;;;;4.87;100.00;99965.88;5005617;28;20197;-75
2021/12/16 10:41:11;;;;;;;20.63;14.73;;;;;;;4.90;100.00;99966.59;5001785;28;20288;-77
2021/12/16 10:43:41;;;;;;;20.37;16.50;;;;;;;4.88;100.00;99973.69;4995375;28;20244;-77
2021/12/16 10:46:11;;;;;;;21.50;16.03;;;;;;;4.81;100.00;99969.69;4968898;28;20431;-77
2021/12/16 10:48:41;;;;;;;18.23;14.57;;;;;;;4.84;100.00;99961.66;4993428;28;20209;-74
2021/12/16 10:51:23;;;;;;;19.30;15.63;;;;;;;4.82;100.00;99955.63;5003973;28;20231;-76
2021/12/16 10:54:01;;;;;;;20.20;16.53;;;;;;;5.05;100.00;99951.78;5005698;28;20237;-75
2021/12/16 10:56:33;;;;;;;21.00;16.33;;;;;;;4.92;100.00;99959.47;5000769;28;20240;-76
2021/12/16 10:59:04;;;;;;;20.47;16.07;;;;;;;4.92;100.00;99950.72;4995576;28;20220;-74
2021/12/16 11:01:40;;;;;;;20.20;16.97;;;;;;;4.83;100.00;99953.84;4966731;28;20217;-76
2021/12/16 11:04:11;;;;;;;20.23;15.40;;;;;;;4.84;100.00;99951.13;4985918;28;22432;-76
2021/12/16 11:06:44;;;;;;;20.13;16.97;;;;;;;4.87;100.00;99942.22;5003593;28;20198;-74
2021/12/16 11:09:34;;;;;;;19.00;14.37;;;;;;;4.83;100.00;99944.19;4998845;28;20212;-75
2021/12/16 11:12:12;;;;;;;22.97;15.83;;;;;;;4.83;100.00;99949.44;4997189;28;20229;-74
2021/12/16 11:14:43;;;;;;;23.57;16.47;;;;;;;4.76;100.00;99929.69;4998724;28;20219;-75
2021/12/16 11:17:13;;;;;;;23.57;17.20;;;;;;;4.78;100.00;99918.16;4953625;28;20750;-78
2021/12/16 11:19:47;;;;;;;23.13;16.57;;;;;;;4.78;100.00;99920.78;4994995;28;20619;-76
2021/12/16 11:22:19;;;;;;;24.40;17.57;;;;;;;4.87;100.00;99924.72;4995169;28;20503;-74
2021/12/16 11:24:47;;;;;;;22.67;17.70;;;;;;;4.96;100.00;99922.50;5005359;28;20288;-74
2021/12/16 11:27:29;;;;;;;20.37;15.63;;;;;;;4.95;100.00;99920.81;4995991;28;20201;-75
2021/12/16 11:29:58;;;;;;;26.10;17.27;;;;;;;4.97;100.00;99924.22;5001693;28;20404;-77
2021/12/16 11:32:41;;;;;;;23.60;18.10;;;;;;;5.19;100.00;99916.91;4965533;28;20313;-75
2021/12/16 11:35:27;;;;;;;23.47;17.27;;;;;;;5.42;100.00;99909.53;5004581;28;20228;-78
2021/12/16 11:37:59;;;;;;;23.13;17.43;;;;;;;5.44;100.00;99915.56;5004927;28;20208;-78
2021/12/16 11:40:27;;;;;;;19.87;16.60;;;;;;;5.63;100.00;99911.94;4997162;28;20289;-77
2021/12/16 11:43:00;;;;;;;23.40;18.57;;;;;;;5.78;100.00;99911.06;4987835;28;20229;-75
2021/12/16 11:45:37;;;;;;;20.40;16.40;;;;;;;5.85;100.00;99908.94;5006244;28;20205;-79
2021/12/16 11:48:07;;;;;;;19.80;16.27;;;;;;;5.91;100.00;99916.47;4961483;28;21737;-78
2021/12/16 11:50:40;;;;;;;23.07;17.13;;;;;;;6.06;100.00;99899.00;4993210;28;20296;-78
2021/12/16 11:53:10;;;;;;;21.67;16.23;;;;;;;6.18;100.00;99894.81;4996312;28;20236;-76
2021/12/16 11:55:40;;;;;;;18.30;15.20;;;;;;;6.40;100.00;99904.09;5005918;28;20224;-77
2021/12/16 11:58:09;;;;;;;18.47;14.30;;;;;;;6.27;100.00;99901.34;4994726;28;20223;-76
2021/12/16 12:00:39;;;;;;;20.17;17.27;;;;;;;6.29;100.00;99906.50;5001427;28;20208;-77
2021/12/16 12:03:09;;;;;;;18.93;15.43;;;;;;;6.22;100.00;99903.38;4995446;28;20233;-73
2021/12/16 12:05:42;;;;;;;19.03;13.53;;;;;;;6.09;100.00;99900.63;4952596;28;20213;-74
2021/12/16 12:08:15;;;;;;;21.30;16.73;;;;;;;5.98;100.00;99902.97;4994349;28;20373;-74
2021/12/16 12:10:45;;;;;;;17.83;15.73;;;;;;;5.87;100.00;99911.47;4992538;28;20750;-76
2021/12/16 12:13:15;;;;;;;17.57;14.50;;;;;;;5.94;100.00;99899.69;4999668;28;20278;-77
2021/12/16 12:16:00;;;;;;;22.93;15.60;;;;;;;5.97;100.00;99907.41;5000236;28;20240;-75
2021/12/16 12:18:37;;;;;;;20.53;16.07;;;;;;;6.03;100.00;99914.13;4977219;28;20219;-74
2021/12/16 12:21:26;;;;;;;18.23;15.20;;;;;;;6.01;100.00;99921.25;4997197;28;20217;-76
2021/12/16 12:23:58;;;;;;;18.80;15.60;;;;;;;6.03;100.00;99922.88;4988452;28;20696;-77
2021/12/16 12:26:28;;;;;;;19.17;15.97;;;;;;;6.00;100.00;99932.69;5005061;28;20227;-74
2021/12/16 12:28:58;;;;;;;26.53;20.90;;;;;;;5.97;100.00;99932.84;5004387;28;20255;-77
2021/12/16 12:31:29;;;;;;;21.03;17.07;;;;;;;5.98;100.00;99930.16;5008250;28;20223;-74
2021/12/16 12:33:57;;;;;;;21.90;19.07;;;;;;;5.97;100.00;99931.09;4996435;28;20427;-75
2021/12/16 12:36:26;;;;;;;18.40;15.67;;;;;;;6.03;100.00;99929.91;4969869;28;20765;-75
2021/12/16 12:38:57;;;;;;;18.80;15.33;;;;;;;5.95;100.00;99930.34;4986189;28;20471;-77
2021/12/16 12:41:25;;;;;;;19.50;15.77;;;;;;;6.03;100.00;99911.47;4999265;28;20467;-74
2021/12/16 12:43:56;;;;;;;20.07;16.03;;;;;;;6.03;100.00;99908.84;4996944;28;20218;-75
2021/12/16 12:46:25;;;;;;;18.63;15.53;;;;;;;6.22;100.00;99911.28;4993210;28;20686;-75
2021/12/16 12:48:55;;;;;;;28.90;21.30;;;;;;;6.21;100.00;99907.81;4987716;28;20773;-78
2021/12/16 12:51:35;;;;;;;24.17;18.73;;;;;;;6.25;100.00;99903.22;4969259;28;20213;-76
2021/12/16 12:54:18;;;;;;;22.63;18.40;;;;;;;6.49;100.00;99906.19;4988779;28;20231;-77
2021/12/16 12:56:46;;;;;;;21.57;17.83;;;;;;;6.49;100.00;99906.19;4997349;28;20217;-78
2021/12/16 12:59:15;;;;;;;19.47;16.80;;;;;;;6.44;100.00;99908.25;5003850;28;20209;-79
2021/12/16 13:01:49;;;;;;;39.90;27.43;;;;;;;6.30;100.00;99911.69;4996906;28;20205;-76
2021/12/16 13:04:29;;;;;;;18.83;15.67;;;;;;;6.32;100.00;99916.84;4990815;28;20245;-78
2021/12/16 13:07:03;;;;;;;28.33;22.37;;;;;;;6.22;100.00;99904.25;4994463;28;20404;-78
2021/12/16 13:09:41;;;;;;;20.83;15.77;;;;;;;6.32;100.00;99915.09;4989711;28;20209;-74
2021/12/16 13:12:35;;;;;;;18.37;14.47;;;;;;;6.34;100.00;99910.56;4998544;28;20220;-77